Time;durP1;ratioP1;P1;durP2;ratioP2;P2;SDS_P1;SDS_P2;PMS_P1;PMS_P2;Temp;Humidity;BMP_temperature;BMP_pressure;BME280_temperature;BME280_humidity;BME280_pressure;Samples;Min_cycle;Max_cycle;Signal;HPM_P1;HPM_P2
2021/04/17 00:02:08;;;;;;;6.05;1.80;;;;;;;;;;5032903;28;20369;-82
2021/04/17 00:04:37;;;;;;;3.05;1.60;;;;;;;;;;5036561;28;20400;-82
2021/04/17 00:07:06;;;;;;;4.68;1.98;;;;;;;;;;5035739;28;20929;-83
2021/04/17 00:09:33;;;;;;;3.85;2.00;;;;;;;;;;5034216;28;20875;-82
2021/04/17 00:12:00;;;;;;;4.10;1.80;;;;;;;;;;5035034;28;20432;-82
2021/04/17 00:14:27;;;;;;;4.28;2.08;;;;;;;;;;5034305;28;20879;-82
2021/04/17 00:16:54;;;;;;;2.72;1.77;;;;;;;;;;5034784;28;20484;-82
2021/04/17 00:19:20;;;;;;;4.00;1.88;;;;;;;;;;5030795;28;20516;-82
2021/04/17 00:21:46;;;;;;;4.80;1.83;;;;;;;;;;5032237;28;20364;-82
2021/04/17 00:24:12;;;;;;;3.78;1.83;;;;;;;;;;5032411;28;20365;-82
2021/04/17 00:26:38;;;;;;;4.18;2.08;;;;;;;;;;5026438;28;20395;-82
2021/04/17 00:29:08;;;;;;;4.37;2.20;;;;;;;;;;5021804;28;20855;-82
2021/04/17 00:31:34;;;;;;;2.88;1.65;;;;;;;;;;5022865;28;20436;-82
2021/04/17 00:34:01;;;;;;;3.90;2.05;;;;;;;;;;5020392;28;20373;-82
2021/04/17 00:36:27;;;;;;;4.15;1.90;;;;;;;;;;5021824;28;20393;-82
2021/04/17 00:38:53;;;;;;;5.10;2.08;;;;;;;;;;5020488;28;20823;-82
2021/04/17 00:41:19;;;;;;;3.10;2.00;;;;;;;;;;5020932;28;20365;-82
2021/04/17 00:43:45;;;;;;;3.28;1.80;;;;;;;;;;5021923;28;20372;-82
2021/04/17 00:46:12;;;;;;;4.05;1.90;;;;;;;;;;5020590;28;20380;-82
2021/04/17 00:48:42;;;;;;;4.30;2.15;;;;;;;;;;5021802;28;20506;-82
2021/04/17 00:51:08;;;;;;;3.53;1.80;;;;;;;;;;5020944;28;20369;-81
2021/04/17 00:53:34;;;;;;;3.03;1.90;;;;;;;;;;5020561;28;20412;-82
2021/04/17 00:56:03;;;;;;;3.58;1.90;;;;;;;;;;5019215;28;20375;-82
2021/04/17 00:58:29;;;;;;;3.25;1.70;;;;;;;;;;5025985;28;20409;-82
2021/04/17 01:00:55;;;;;;;3.10;1.90;;;;;;;;;;5023517;28;20429;-82
2021/04/17 01:03:33;;;;;;;4.07;1.73;;;;;;;;;;5020816;28;20449;-82
2021/04/17 01:06:04;;;;;;;2.33;1.80;;;;;;;;;;5027067;28;20377;-82
2021/04/17 01:08:47;;;;;;;2.42;1.85;;;;;;;;;;5031252;28;20370;-82
2021/04/17 01:11:16;;;;;;;3.22;1.83;;;;;;;;;;5030224;28;20420;-82
2021/04/17 01:13:43;;;;;;;3.35;2.00;;;;;;;;;;5031322;28;20361;-82
2021/04/17 01:16:09;;;;;;;3.47;1.80;;;;;;;;;;5030114;28;20389;-82
2021/04/17 01:18:36;;;;;;;3.17;1.77;;;;;;;;;;5031417;28;20397;-82
2021/04/17 01:21:02;;;;;;;4.28;2.10;;;;;;;;;;5031205;28;20464;-82
2021/04/17 01:23:32;;;;;;;3.15;1.80;;;;;;;;;;5031112;28;20377;-82
2021/04/17 01:26:03;;;;;;;3.67;2.10;;;;;;;;;;5031018;28;20440;-81
2021/04/17 01:28:30;;;;;;;6.07;2.30;;;;;;;;;;5031070;28;20432;-81
2021/04/17 01:30:57;;;;;;;3.42;2.00;;;;;;;;;;5029648;28;20726;-82
2021/04/17 01:33:28;;;;;;;5.80;2.40;;;;;;;;;;5029867;28;20389;-82
2021/04/17 01:35:55;;;;;;;4.93;2.45;;;;;;;;;;5031087;28;20461;-82
2021/04/17 01:38:21;;;;;;;4.07;2.05;;;;;;;;;;5029653;28;20385;-82
2021/04/17 01:40:48;;;;;;;3.25;2.15;;;;;;;;;;5030883;28;20844;-82
2021/04/17 01:43:15;;;;;;;4.60;2.07;;;;;;;;;;5030975;28;20443;-82
2021/04/17 01:45:41;;;;;;;3.55;2.05;;;;;;;;;;5030637;28;20381;-82
2021/04/17 01:48:08;;;;;;;5.40;1.73;;;;;;;;;;5030865;28;20365;-82
2021/04/17 01:50:35;;;;;;;4.53;2.33;;;;;;;;;;5031229;28;20378;-82
2021/04/17 01:53:02;;;;;;;4.72;2.42;;;;;;;;;;5031702;28;20365;-82
2021/04/17 01:55:31;;;;;;;4.38;2.22;;;;;;;;;;5031919;28;20407;-81
2021/04/17 01:57:57;;;;;;;4.18;2.25;;;;;;;;;;5032388;28;20397;-82
2021/04/17 02:00:23;;;;;;;5.45;2.20;;;;;;;;;;5032700;28;20374;-81
2021/04/17 02:02:51;;;;;;;4.45;2.20;;;;;;;;;;5031881;28;20361;-82
2021/04/17 02:05:17;;;;;;;6.28;2.40;;;;;;;;;;5029676;28;20461;-81
2021/04/17 02:07:43;;;;;;;3.80;2.45;;;;;;;;;;5031895;28;20444;-81
2021/04/17 02:10:09;;;;;;;4.18;2.40;;;;;;;;;;5029338;28;20792;-81
2021/04/17 02:12:36;;;;;;;4.20;2.40;;;;;;;;;;5030437;28;20388;-81
2021/04/17 02:15:02;;;;;;;3.85;2.30;;;;;;;;;;5029019;28;20468;-81
2021/04/17 02:18:01;;;;;;;4.85;2.38;;;;;;;;;;5028979;28;20956;-81
2021/04/17 02:20:31;;;;;;;3.97;2.33;;;;;;;;;;5018110;28;20369;-81
2021/04/17 02:22:57;;;;;;;3.97;2.30;;;;;;;;;;5030447;28;20370;-81
2021/04/17 02:25:23;;;;;;;3.97;2.20;;;;;;;;;;5029053;28;20370;-81
2021/04/17 02:27:50;;;;;;;4.80;2.40;;;;;;;;;;5030289;28;20482;-81
2021/04/17 02:30:16;;;;;;;5.53;2.38;;;;;;;;;;5030931;28;20977;-81
2021/04/17 02:32:42;;;;;;;4.77;2.63;;;;;;;;;;5033346;28;20369;-82
2021/04/17 02:35:08;;;;;;;4.72;2.67;;;;;;;;;;5035109;28;20373;-81
2021/04/17 02:37:34;;;;;;;5.30;2.65;;;;;;;;;;5034881;28;20455;-81
2021/04/17 02:40:00;;;;;;;3.42;2.25;;;;;;;;;;5034641;28;20365;-81
2021/04/17 02:42:26;;;;;;;3.72;2.17;;;;;;;;;;5034399;28;20377;-82
2021/04/17 02:44:52;;;;;;;4.13;2.30;;;;;;;;;;5032907;28;20419;-81
2021/04/17 02:47:18;;;;;;;5.80;2.73;;;;;;;;;;5032657;28;20480;-82
2021/04/17 02:49:45;;;;;;;4.63;2.33;;;;;;;;;;5034058;28;20899;-81
2021/04/17 02:52:11;;;;;;;4.32;2.13;;;;;;;;;;5032604;28;20379;-82
2021/04/17 02:54:37;;;;;;;4.47;2.30;;;;;;;;;;5033805;28;20468;-82
2021/04/17 02:57:03;;;;;;;4.20;2.40;;;;;;;;;;5032470;28;20389;-81
2021/04/17 02:59:29;;;;;;;4.93;2.45;;;;;;;;;;5032557;28;20752;-82
2021/04/17 03:01:55;;;;;;;4.50;2.30;;;;;;;;;;5033777;28;20713;-82
2021/04/17 03:04:21;;;;;;;3.88;2.15;;;;;;;;;;5033752;28;20372;-82
2021/04/17 03:06:47;;;;;;;8.13;2.38;;;;;;;;;;5034087;28;20373;-82
2021/04/17 03:09:13;;;;;;;6.20;2.77;;;;;;;;;;5034016;28;20374;-82
2021/04/17 03:11:39;;;;;;;4.93;2.58;;;;;;;;;;5034167;28;20369;-82
2021/04/17 03:14:05;;;;;;;3.40;2.40;;;;;;;;;;5033602;28;20877;-82
2021/04/17 03:16:31;;;;;;;4.70;2.45;;;;;;;;;;5032255;28;20836;-81
2021/04/17 03:18:57;;;;;;;4.47;2.45;;;;;;;;;;5031902;28;20409;-81
2021/04/17 03:21:23;;;;;;;3.40;2.45;;;;;;;;;;5032182;28;20374;-82
2021/04/17 03:23:49;;;;;;;5.85;2.88;;;;;;;;;;5033244;28;20362;-81
2021/04/17 03:26:15;;;;;;;4.57;2.73;;;;;;;;;;5033168;28;20370;-81
2021/04/17 03:28:41;;;;;;;5.57;2.47;;;;;;;;;;5031925;28;20889;-82
2021/04/17 03:31:07;;;;;;;6.45;2.53;;;;;;;;;;5032215;28;20382;-82
2021/04/17 03:33:33;;;;;;;5.10;2.50;;;;;;;;;;5033927;28;20373;-82
2021/04/17 03:35:59;;;;;;;4.82;2.65;;;;;;;;;;5032701;28;20374;-82
2021/04/17 03:38:25;;;;;;;6.18;3.08;;;;;;;;;;5032641;28;20401;-81
2021/04/17 03:40:51;;;;;;;4.05;2.80;;;;;;;;;;5033787;28;20369;-81
2021/04/17 03:43:18;;;;;;;5.20;2.50;;;;;;;;;;5034110;28;20878;-82
2021/04/17 03:45:44;;;;;;;6.10;3.30;;;;;;;;;;5032379;28;20489;-82
2021/04/17 03:48:10;;;;;;;4.60;2.65;;;;;;;;;;5032386;28;20855;-81
2021/04/17 03:50:37;;;;;;;4.75;2.63;;;;;;;;;;5032197;28;20807;-82
2021/04/17 03:53:03;;;;;;;5.38;2.60;;;;;;;;;;5032156;28;20420;-81
2021/04/17 03:55:29;;;;;;;5.07;2.38;;;;;;;;;;5031965;28;20440;-81
2021/04/17 03:57:55;;;;;;;4.38;2.60;;;;;;;;;;5032189;28;20500;-82
2021/04/17 04:00:22;;;;;;;6.00;2.70;;;;;;;;;;5036557;28;20859;-81
2021/04/17 04:02:48;;;;;;;5.60;2.80;;;;;;;;;;5036798;28;20955;-82
2021/04/17 04:05:14;;;;;;;7.78;3.20;;;;;;;;;;5037453;28;20468;-81
2021/04/17 04:07:41;;;;;;;6.45;2.60;;;;;;;;;;5036208;28;20377;-81
2021/04/17 04:10:08;;;;;;;6.55;2.85;;;;;;;;;;5032065;28;20898;-81
2021/04/17 04:12:34;;;;;;;5.28;2.67;;;;;;;;;;5032524;28;20424;-81
2021/04/17 04:15:00;;;;;;;5.57;2.50;;;;;;;;;;5032504;28;20643;-81
2021/04/17 04:17:26;;;;;;;6.95;2.90;;;;;;;;;;5032199;28;20393;-81
2021/04/17 04:19:52;;;;;;;5.07;2.67;;;;;;;;;;5032292;28;20362;-81
2021/04/17 04:22:18;;;;;;;5.35;2.90;;;;;;;;;;5032371;28;20365;-81
2021/04/17 04:24:44;;;;;;;7.10;3.03;;;;;;;;;;5032672;28;20468;-81
2021/04/17 04:27:10;;;;;;;6.55;3.03;;;;;;;;;;5032409;28;20384;-81
2021/04/17 04:29:36;;;;;;;6.83;2.77;;;;;;;;;;5032086;28;20443;-81
2021/04/17 04:32:02;;;;;;;6.03;2.90;;;;;;;;;;5032528;28;20840;-81
2021/04/17 04:34:28;;;;;;;6.18;2.70;;;;;;;;;;5031559;28;20748;-81
2021/04/17 04:36:54;;;;;;;6.03;2.90;;;;;;;;;;5033134;28;20368;-81
2021/04/17 04:39:20;;;;;;;3.53;2.53;;;;;;;;;;5032765;28;20874;-81
2021/04/17 04:41:46;;;;;;;6.03;3.03;;;;;;;;;;5039976;28;20457;-81
2021/04/17 04:44:12;;;;;;;6.27;2.80;;;;;;;;;;5032422;28;20536;-81
2021/04/17 04:46:38;;;;;;;5.13;2.85;;;;;;;;;;5032377;28;20459;-81
2021/04/17 04:49:04;;;;;;;5.72;3.10;;;;;;;;;;5032493;28;20792;-81
2021/04/17 04:51:30;;;;;;;5.68;3.00;;;;;;;;;;5030536;28;20432;-81
2021/04/17 04:53:56;;;;;;;7.57;3.15;;;;;;;;;;5031107;28;20587;-81
2021/04/17 04:56:22;;;;;;;7.47;3.25;;;;;;;;;;5030097;28;20398;-81
2021/04/17 04:58:48;;;;;;;5.28;2.92;;;;;;;;;;5031343;28;20389;-81
2021/04/17 05:01:14;;;;;;;6.63;3.40;;;;;;;;;;5031808;28;20380;-81
2021/04/17 05:03:40;;;;;;;6.57;3.22;;;;;;;;;;5031296;28;20373;-81
2021/04/17 05:06:06;;;;;;;6.95;3.40;;;;;;;;;;5031533;28;20625;-81
2021/04/17 05:08:32;;;;;;;6.80;3.95;;;;;;;;;;5029906;28;20852;-81
2021/04/17 05:10:58;;;;;;;5.13;3.50;;;;;;;;;;5031351;28;20377;-81
2021/04/17 05:13:24;;;;;;;8.15;3.80;;;;;;;;;;5031393;28;20387;-82
2021/04/17 05:15:50;;;;;;;7.28;3.30;;;;;;;;;;5031280;28;20419;-82
2021/04/17 05:18:16;;;;;;;6.17;3.30;;;;;;;;;;5031779;28;20394;-81
2021/04/17 05:20:42;;;;;;;7.55;3.35;;;;;;;;;;5031670;28;20377;-81
2021/04/17 05:23:08;;;;;;;7.47;3.03;;;;;;;;;;5031526;28;20740;-81
2021/04/17 05:25:34;;;;;;;7.53;3.50;;;;;;;;;;5031618;28;20460;-81
2021/04/17 05:28:00;;;;;;;8.70;3.63;;;;;;;;;;5031369;28;20377;-81
2021/04/17 05:30:26;;;;;;;9.35;3.75;;;;;;;;;;5030441;28;20377;-82
2021/04/17 05:32:52;;;;;;;6.00;3.47;;;;;;;;;;5031656;28;20400;-81
2021/04/17 05:35:18;;;;;;;5.95;3.08;;;;;;;;;;5031952;28;20428;-81
2021/04/17 05:37:44;;;;;;;6.32;3.30;;;;;;;;;;5031733;28;20404;-81
2021/04/17 05:40:10;;;;;;;8.73;3.40;;;;;;;;;;5041082;28;20413;-81
2021/04/17 05:42:36;;;;;;;6.47;3.50;;;;;;;;;;5031488;28;20867;-81
2021/04/17 05:45:03;;;;;;;7.28;3.33;;;;;;;;;;5030212;28;20377;-81
2021/04/17 05:47:29;;;;;;;5.65;3.28;;;;;;;;;;5031114;28;20480;-81
2021/04/17 05:49:55;;;;;;;8.70;3.50;;;;;;;;;;5031109;28;20756;-81
2021/04/17 05:52:21;;;;;;;6.20;3.20;;;;;;;;;;5030643;28;20369;-81
2021/04/17 05:54:47;;;;;;;5.27;3.13;;;;;;;;;;5029487;28;20440;-81
2021/04/17 05:57:13;;;;;;;5.93;3.05;;;;;;;;;;5029249;28;20407;-81
2021/04/17 05:59:39;;;;;;;5.43;2.88;;;;;;;;;;5031014;28;20440;-81
2021/04/17 06:02:06;;;;;;;6.22;3.10;;;;;;;;;;5029315;28;20451;-81
2021/04/17 06:04:32;;;;;;;5.60;2.63;;;;;;;;;;5030778;28;20713;-81
2021/04/17 06:06:58;;;;;;;6.85;2.75;;;;;;;;;;5030143;28;20420;-81
2021/04/17 06:09:24;;;;;;;5.88;2.90;;;;;;;;;;5029199;28;20728;-81
2021/04/17 06:11:50;;;;;;;6.53;2.90;;;;;;;;;;5030731;28;20383;-81
2021/04/17 06:14:16;;;;;;;8.18;3.08;;;;;;;;;;5030726;28;20444;-81
2021/04/17 06:16:42;;;;;;;6.97;2.83;;;;;;;;;;5030614;28;20381;-81
2021/04/17 06:19:09;;;;;;;6.00;3.10;;;;;;;;;;5029149;28;20435;-81
2021/04/17 06:21:36;;;;;;;5.20;2.55;;;;;;;;;;5030816;28;20374;-82
2021/04/17 06:24:02;;;;;;;5.97;2.50;;;;;;;;;;5030878;28;20365;-81
2021/04/17 06:26:28;;;;;;;5.00;2.53;;;;;;;;;;5030573;28;20366;-82
2021/04/17 06:28:54;;;;;;;4.97;2.43;;;;;;;;;;5031738;28;20361;-81
2021/04/17 06:31:21;;;;;;;5.37;2.30;;;;;;;;;;5031542;28;20401;-81
2021/04/17 06:33:48;;;;;;;4.15;2.22;;;;;;;;;;5030803;28;20744;-81
2021/04/17 06:36:14;;;;;;;8.57;2.60;;;;;;;;;;5031099;28;20866;-82
2021/04/17 06:38:40;;;;;;;4.93;2.17;;;;;;;;;;5029568;28;20767;-82
2021/04/17 06:41:07;;;;;;;6.00;2.10;;;;;;;;;;5030941;28;20860;-82
2021/04/17 06:43:37;;;;;;;5.75;2.38;;;;;;;;;;5030026;28;20435;-81
2021/04/17 06:46:04;;;;;;;3.88;2.15;;;;;;;;;;5030866;28;20436;-82
2021/04/17 06:48:32;;;;;;;5.30;2.43;;;;;;;;;;5031194;28;20777;-82
2021/04/17 06:50:58;;;;;;;6.43;2.30;;;;;;;;;;5031152;28;20423;-82
2021/04/17 06:53:26;;;;;;;5.63;2.50;;;;;;;;;;5031135;28;20405;-82
2021/04/17 06:55:52;;;;;;;5.30;2.53;;;;;;;;;;5029335;28;20852;-82
2021/04/17 06:58:19;;;;;;;5.22;2.20;;;;;;;;;;5030462;28;20386;-82
2021/04/17 07:00:49;;;;;;;5.10;2.40;;;;;;;;;;5030501;28;20369;-82
2021/04/17 07:03:16;;;;;;;5.47;2.40;;;;;;;;;;5030108;28;20361;-82
2021/04/17 07:05:42;;;;;;;5.82;2.40;;;;;;;;;;5030611;28;20369;-82
2021/04/17 07:08:08;;;;;;;5.25;1.98;;;;;;;;;;5030265;28;20777;-82
2021/04/17 07:10:34;;;;;;;4.55;2.35;;;;;;;;;;5030984;28;20385;-82
2021/04/17 07:13:13;;;;;;;4.38;2.40;;;;;;;;;;5029862;28;20381;-81
2021/04/17 07:15:40;;;;;;;4.95;2.38;;;;;;;;;;5029726;28;20373;-81
2021/04/17 07:18:24;;;;;;;4.85;2.03;;;;;;;;;;5030374;28;20496;-82
2021/04/17 07:20:50;;;;;;;5.60;2.35;;;;;;;;;;5033723;28;20404;-81
2021/04/17 07:23:46;;;;;;;7.22;2.47;;;;;;;;;;5033374;28;20381;-82
2021/04/17 07:26:13;;;;;;;4.57;2.20;;;;;;;;;;5029482;28;20374;-82
2021/04/17 07:28:40;;;;;;;5.43;2.28;;;;;;;;;;5034406;28;20372;-82
2021/04/17 07:31:07;;;;;;;4.53;2.27;;;;;;;;;;5033858;28;20794;-82
2021/04/17 07:33:33;;;;;;;3.93;2.07;;;;;;;;;;5032183;28;20947;-82
2021/04/17 07:36:02;;;;;;;7.97;2.70;;;;;;;;;;5033293;28;20397;-81
2021/04/17 07:38:38;;;;;;;4.55;2.20;;;;;;;;;;5033487;28;20393;-83
2021/04/17 07:41:33;;;;;;;4.90;2.22;;;;;;;;;;5027437;28;20390;-81
2021/04/17 07:44:03;;;;;;;4.67;2.27;;;;;;;;;;5027649;28;20385;-83
2021/04/17 07:46:31;;;;;;;6.50;2.90;;;;;;;;;;5036003;28;20369;-84
2021/04/17 07:49:11;;;;;;;5.38;2.50;;;;;;;;;;5035695;28;20377;-82
2021/04/17 07:51:59;;;;;;;6.30;2.70;;;;;;;;;;5035330;28;20393;-82
2021/04/17 07:54:25;;;;;;;5.57;2.78;;;;;;;;;;5033529;28;20366;-81
2021/04/17 07:56:51;;;;;;;7.30;2.63;;;;;;;;;;5033246;28;20712;-82
2021/04/17 07:59:22;;;;;;;5.18;2.47;;;;;;;;;;5033390;28;20412;-83
2021/04/17 08:01:49;;;;;;;6.88;2.45;;;;;;;;;;5034049;28;20374;-81
2021/04/17 08:04:22;;;;;;;4.68;2.40;;;;;;;;;;5033804;28;20369;-85
2021/04/17 08:06:48;;;;;;;8.38;2.78;;;;;;;;;;5033531;28;20397;-82
2021/04/17 08:09:14;;;;;;;6.45;2.50;;;;;;;;;;5031633;28;20424;-84
2021/04/17 08:11:45;;;;;;;8.43;2.90;;;;;;;;;;5033099;28;20431;-83
2021/04/17 08:14:11;;;;;;;7.25;2.65;;;;;;;;;;5031518;28;20374;-85
2021/04/17 08:16:37;;;;;;;8.98;2.80;;;;;;;;;;5033284;28;20381;-85
2021/04/17 08:19:03;;;;;;;7.65;2.60;;;;;;;;;;5031373;28;20459;-80
2021/04/17 08:21:29;;;;;;;6.72;2.40;;;;;;;;;;5032490;28;20365;-81
2021/04/17 08:23:56;;;;;;;6.85;2.50;;;;;;;;;;5032427;28;20740;-81
2021/04/17 08:26:22;;;;;;;5.82;2.75;;;;;;;;;;5029587;28;20929;-81
2021/04/17 08:28:50;;;;;;;5.88;2.30;;;;;;;;;;5033852;28;20416;-80
2021/04/17 08:31:21;;;;;;;9.20;2.73;;;;;;;;;;5010583;28;21009;-80
2021/04/17 08:34:05;;;;;;;8.63;3.10;;;;;;;;;;5012838;28;20398;-80
2021/04/17 08:36:32;;;;;;;8.68;2.95;;;;;;;;;;5011737;28;20375;-79
2021/04/17 08:38:58;;;;;;;8.43;2.55;;;;;;;;;;5031453;28;20401;-82
2021/04/17 08:41:40;;;;;;;7.70;2.75;;;;;;;;;;5032638;28;20728;-82
2021/04/17 08:44:25;;;;;;;15.63;3.45;;;;;;;;;;5012918;28;20383;-82
2021/04/17 08:46:51;;;;;;;7.78;2.97;;;;;;;;;;5026025;28;20373;-83
2021/04/17 08:49:21;;;;;;;12.05;3.20;;;;;;;;;;5032098;28;20381;-82
2021/04/17 08:51:47;;;;;;;39.17;5.07;;;;;;;;;;5032301;28;20851;-81
2021/04/17 08:54:15;;;;;;;6.72;2.75;;;;;;;;;;5032070;28;20435;-81
2021/04/17 08:56:52;;;;;;;9.40;3.30;;;;;;;;;;5032640;28;20361;-84
2021/04/17 08:59:19;;;;;;;5.80;2.67;;;;;;;;;;5028223;28;20413;-80
2021/04/17 09:01:46;;;;;;;7.68;2.97;;;;;;;;;;5032479;28;20361;-82
2021/04/17 09:04:13;;;;;;;7.77;2.90;;;;;;;;;;5032136;28;20366;-82
2021/04/17 09:06:44;;;;;;;45.67;6.07;;;;;;;;;;5032211;28;20444;-81
2021/04/17 09:09:16;;;;;;;7.15;2.90;;;;;;;;;;5030931;28;20850;-80
2021/04/17 09:11:46;;;;;;;6.88;3.08;;;;;;;;;;5032553;28;20374;-83
2021/04/17 09:14:31;;;;;;;8.52;2.80;;;;;;;;;;5032263;28;20401;-80
2021/04/17 09:16:59;;;;;;;8.55;3.25;;;;;;;;;;5032119;28;20362;-80
2021/04/17 09:22:24;;;;;;;6.97;2.80;;;;;;;;;;5031941;28;20483;-80
2021/04/17 09:24:54;;;;;;;10.77;3.58;;;;;;;;;;5031984;28;20867;-80
2021/04/17 09:27:27;;;;;;;9.30;2.97;;;;;;;;;;5032594;28;20408;-80
2021/04/17 09:29:57;;;;;;;5.10;2.97;;;;;;;;;;5015648;28;20936;-81
2021/04/17 09:32:23;;;;;;;9.37;3.40;;;;;;;;;;5010940;28;20387;-80
2021/04/17 09:34:49;;;;;;;10.18;3.33;;;;;;;;;;5027887;28;20400;-80
2021/04/17 09:37:15;;;;;;;8.23;3.38;;;;;;;;;;5031692;28;21055;-81
2021/04/17 09:39:45;;;;;;;9.82;2.97;;;;;;;;;;5017834;28;20383;-80
2021/04/17 09:42:11;;;;;;;8.38;3.20;;;;;;;;;;5012470;28;20384;-80
2021/04/17 09:44:44;;;;;;;8.20;3.40;;;;;;;;;;5012358;28;20387;-81
2021/04/17 09:47:11;;;;;;;7.30;3.20;;;;;;;;;;5031119;28;20430;-80
2021/04/17 09:49:40;;;;;;;7.83;3.23;;;;;;;;;;5031276;28;20454;-80
2021/04/17 09:52:06;;;;;;;9.98;3.22;;;;;;;;;;5013461;28;20383;-80
2021/04/17 09:54:33;;;;;;;9.93;3.17;;;;;;;;;;5012006;28;20367;-81
2021/04/17 09:57:04;;;;;;;7.55;3.38;;;;;;;;;;5028113;28;20385;-81
2021/04/17 09:59:30;;;;;;;9.52;3.05;;;;;;;;;;5025404;28;20469;-81
2021/04/17 10:01:57;;;;;;;7.03;3.08;;;;;;;;;;5011458;28;20426;-80
2021/04/17 10:04:23;;;;;;;7.32;3.47;;;;;;;;;;5020464;28;20425;-85
2021/04/17 10:06:59;;;;;;;6.80;3.03;;;;;;;;;;5013672;28;20429;-81
2021/04/17 10:09:25;;;;;;;6.97;3.10;;;;;;;;;;5020567;28;20398;-80
2021/04/17 10:11:51;;;;;;;8.23;3.60;;;;;;;;;;5019310;28;20377;-80
2021/04/17 10:14:23;;;;;;;50.60;6.93;;;;;;;;;;5029101;28;20464;-80
2021/04/17 10:16:49;;;;;;;8.57;3.35;;;;;;;;;;5027582;28;20851;-80
2021/04/17 10:19:19;;;;;;;8.63;3.40;;;;;;;;;;5026603;28;20894;-81
2021/04/17 10:21:46;;;;;;;9.03;3.50;;;;;;;;;;5034845;28;20388;-81
2021/04/17 10:24:20;;;;;;;13.50;3.95;;;;;;;;;;5033012;28;20377;-80
2021/04/17 10:26:58;;;;;;;11.50;4.07;;;;;;;;;;5020654;28;20385;-81
2021/04/17 10:29:38;;;;;;;10.32;4.47;;;;;;;;;;5023897;28;20385;-81
2021/04/17 10:32:05;;;;;;;9.25;4.15;;;;;;;;;;5024596;28;20381;-81
2021/04/17 10:34:32;;;;;;;10.65;4.40;;;;;;;;;;5025804;28;20387;-80
2021/04/17 10:37:09;;;;;;;127.18;13.95;;;;;;;;;;5024417;28;20377;-82
2021/04/17 10:39:36;;;;;;;8.55;4.40;;;;;;;;;;5026726;28;20416;-80
2021/04/17 10:42:04;;;;;;;10.00;3.85;;;;;;;;;;5028362;28;20709;-82
2021/04/17 10:44:30;;;;;;;9.57;4.40;;;;;;;;;;5023958;28;20433;-80
2021/04/17 10:46:57;;;;;;;9.15;3.88;;;;;;;;;;5028533;28;20461;-79
2021/04/17 10:49:37;;;;;;;8.35;4.10;;;;;;;;;;5036505;28;20383;-80
2021/04/17 10:52:05;;;;;;;10.13;4.03;;;;;;;;;;5028102;28;20402;-80
2021/04/17 10:54:32;;;;;;;7.65;3.72;;;;;;;;;;5030602;28;20919;-80
2021/04/17 10:57:08;;;;;;;9.25;4.50;;;;;;;;;;5030297;28;20370;-80
2021/04/17 11:00:00;;;;;;;7.00;3.67;;;;;;;;;;5030043;28;20370;-81
2021/04/17 11:02:32;;;;;;;10.40;4.22;;;;;;;;;;5029200;28;20373;-81
2021/04/17 11:04:59;;;;;;;10.38;4.80;;;;;;;;;;5032626;28;20378;-80
2021/04/17 11:07:37;;;;;;;8.55;4.10;;;;;;;;;;5029533;28;20439;-80
2021/04/17 11:10:04;;;;;;;27.85;5.70;;;;;;;;;;5031450;28;20393;-81
2021/04/17 11:12:31;;;;;;;10.73;4.57;;;;;;;;;;5030140;28;20373;-82
2021/04/17 11:15:12;;;;;;;10.30;4.45;;;;;;;;;;5032685;28;20453;-80
2021/04/17 11:17:38;;;;;;;8.45;3.88;;;;;;;;;;5030877;28;20411;-80
2021/04/17 11:20:15;;;;;;;15.35;4.80;;;;;;;;;;5032690;28;20903;-83
2021/04/17 11:22:41;;;;;;;9.30;4.30;;;;;;;;;;5033558;28;20732;-81
2021/04/17 11:25:07;;;;;;;7.45;4.82;;;;;;;;;;5030760;28;20374;-81
2021/04/17 11:27:38;;;;;;;9.07;4.85;;;;;;;;;;5031826;28;20380;-81
2021/04/17 11:30:07;;;;;;;11.02;5.05;;;;;;;;;;5029007;28;20381;-79
2021/04/17 11:32:33;;;;;;;9.38;5.05;;;;;;;;;;5032574;28;20374;-81
2021/04/17 11:34:59;;;;;;;11.38;5.00;;;;;;;;;;5030514;28;20834;-82
2021/04/17 11:37:29;;;;;;;10.25;5.20;;;;;;;;;;5032539;28;20395;-79
2021/04/17 11:39:56;;;;;;;10.73;5.18;;;;;;;;;;5030066;28;20378;-81
2021/04/17 11:42:22;;;;;;;10.80;4.93;;;;;;;;;;5031766;28;20771;-80
2021/04/17 11:44:48;;;;;;;25.77;5.78;;;;;;;;;;5032438;28;20374;-83
2021/04/17 11:47:14;;;;;;;8.07;4.50;;;;;;;;;;5031432;28;20385;-81
2021/04/17 11:49:41;;;;;;;10.05;4.90;;;;;;;;;;5030841;28;20958;-82
2021/04/17 11:52:07;;;;;;;8.75;4.53;;;;;;;;;;5030903;28;20377;-81
2021/04/17 11:54:33;;;;;;;8.13;5.00;;;;;;;;;;5031769;28;20381;-81
2021/04/17 11:56:59;;;;;;;10.32;4.75;;;;;;;;;;5031820;28;20385;-80
2021/04/17 11:59:26;;;;;;;8.68;5.20;;;;;;;;;;5040530;28;20467;-81
2021/04/17 12:01:52;;;;;;;14.80;5.03;;;;;;;;;;5031540;28;20539;-80
2021/04/17 12:04:19;;;;;;;12.10;5.82;;;;;;;;;;5032241;28;20448;-81
2021/04/17 12:06:50;;;;;;;11.23;5.38;;;;;;;;;;5031253;28;20472;-81
2021/04/17 12:09:16;;;;;;;10.07;5.28;;;;;;;;;;5031293;28;20427;-79
2021/04/17 12:11:43;;;;;;;10.73;5.27;;;;;;;;;;5031768;28;20385;-80
2021/04/17 12:14:09;;;;;;;10.45;5.40;;;;;;;;;;5032026;28;20366;-79
2021/04/17 12:16:35;;;;;;;12.70;5.70;;;;;;;;;;5031479;28;20383;-81
2021/04/17 12:19:01;;;;;;;11.57;5.53;;;;;;;;;;5031715;28;20401;-81
2021/04/17 12:21:27;;;;;;;9.77;5.28;;;;;;;;;;5031667;28;20373;-80
2021/04/17 12:23:53;;;;;;;11.05;5.30;;;;;;;;;;5031330;28;20393;-79
2021/04/17 12:26:19;;;;;;;8.30;5.05;;;;;;;;;;5032357;28;20369;-79
2021/04/17 12:28:45;;;;;;;10.63;5.82;;;;;;;;;;5029577;28;20389;-81
2021/04/17 12:31:11;;;;;;;12.38;5.72;;;;;;;;;;5023263;28;20412;-81
2021/04/17 12:33:37;;;;;;;9.98;5.28;;;;;;;;;;5031100;28;20836;-80
2021/04/17 12:36:04;;;;;;;13.55;5.38;;;;;;;;;;5031908;28;20464;-79
2021/04/17 12:38:30;;;;;;;11.40;5.93;;;;;;;;;;5021452;28;20875;-79
2021/04/17 12:40:56;;;;;;;11.80;5.38;;;;;;;;;;5026009;28;20379;-78
2021/04/17 12:43:23;;;;;;;9.13;5.80;;;;;;;;;;5030988;28;20404;-80
2021/04/17 12:45:49;;;;;;;9.73;6.20;;;;;;;;;;5023430;28;21276;-80
2021/04/17 12:48:16;;;;;;;11.40;5.90;;;;;;;;;;5027664;28;20385;-79
2021/04/17 12:50:43;;;;;;;9.68;5.43;;;;;;;;;;5029913;28;20378;-80
2021/04/17 12:53:09;;;;;;;10.45;5.82;;;;;;;;;;5029552;28;20579;-80
2021/04/17 12:55:35;;;;;;;9.68;5.82;;;;;;;;;;5028948;28;20431;-79
2021/04/17 12:58:01;;;;;;;9.68;5.57;;;;;;;;;;5029283;28;20400;-80
2021/04/17 13:00:27;;;;;;;10.50;5.93;;;;;;;;;;5030157;28;20902;-80
2021/04/17 13:02:53;;;;;;;10.38;5.68;;;;;;;;;;5030847;28;20378;-82
2021/04/17 13:05:20;;;;;;;10.40;5.28;;;;;;;;;;5028005;28;20382;-80
2021/04/17 13:07:46;;;;;;;11.93;6.20;;;;;;;;;;5029958;28;20794;-81
2021/04/17 13:10:15;;;;;;;9.75;5.45;;;;;;;;;;5028114;28;20377;-81
2021/04/17 13:12:42;;;;;;;11.43;5.70;;;;;;;;;;5028364;28;20413;-79
2021/04/17 13:15:08;;;;;;;13.63;5.70;;;;;;;;;;5029576;28;20366;-81
2021/04/17 13:17:34;;;;;;;10.30;5.72;;;;;;;;;;5030660;28;20808;-78
2021/04/17 13:20:00;;;;;;;11.43;5.75;;;;;;;;;;5030818;28;20472;-80
2021/04/17 13:22:26;;;;;;;16.23;7.30;;;;;;;;;;5030248;28;20458;-82
2021/04/17 13:24:54;;;;;;;12.98;6.30;;;;;;;;;;5029660;28;20382;-80
2021/04/17 13:27:20;;;;;;;11.20;6.32;;;;;;;;;;5027084;28;20385;-80
2021/04/17 13:29:46;;;;;;;11.15;6.00;;;;;;;;;;5030760;28;20732;-81
2021/04/17 13:32:12;;;;;;;10.13;5.78;;;;;;;;;;5029233;28;20469;-81
2021/04/17 13:34:38;;;;;;;10.88;5.75;;;;;;;;;;5030654;28;20986;-81
2021/04/17 13:37:04;;;;;;;10.45;6.25;;;;;;;;;;5030178;28;20377;-82
2021/04/17 13:39:30;;;;;;;15.15;6.40;;;;;;;;;;5027864;28;20473;-80
2021/04/17 13:41:56;;;;;;;10.93;6.07;;;;;;;;;;5030185;28;20370;-79
2021/04/17 13:44:22;;;;;;;12.10;6.43;;;;;;;;;;5035875;28;20381;-80
2021/04/17 13:46:48;;;;;;;10.85;6.07;;;;;;;;;;5030502;28;20855;-79
2021/04/17 13:49:14;;;;;;;12.13;6.18;;;;;;;;;;5029555;28;20369;-81
2021/04/17 13:51:40;;;;;;;12.15;6.70;;;;;;;;;;5030094;28;20385;-79
2021/04/17 13:54:06;;;;;;;10.52;6.03;;;;;;;;;;5029071;28;20436;-81
2021/04/17 13:56:33;;;;;;;11.25;6.30;;;;;;;;;;5029931;28;20381;-80
2021/04/17 13:58:59;;;;;;;9.85;5.68;;;;;;;;;;5029658;28;20751;-81
2021/04/17 14:01:34;;;;;;;11.63;6.13;;;;;;;;;;5028967;28;20374;-81
2021/04/17 14:04:06;;;;;;;12.02;6.40;;;;;;;;;;5028837;28;20373;-81
2021/04/17 14:06:40;;;;;;;12.13;6.32;;;;;;;;;;5025942;28;20409;-81
2021/04/17 14:09:06;;;;;;;12.45;6.22;;;;;;;;;;5033456;28;20409;-80
2021/04/17 14:11:32;;;;;;;11.30;6.22;;;;;;;;;;5028292;28;20385;-80
2021/04/17 14:13:58;;;;;;;10.63;6.72;;;;;;;;;;5030288;28;20362;-80
2021/04/17 14:16:24;;;;;;;11.43;6.28;;;;;;;;;;5034174;28;20859;-81
2021/04/17 14:18:50;;;;;;;11.32;5.75;;;;;;;;;;5030093;28;20401;-80
2021/04/17 14:21:16;;;;;;;13.70;6.78;;;;;;;;;;5030245;28;20368;-80
2021/04/17 14:23:46;;;;;;;13.30;6.07;;;;;;;;;;5030359;28;20701;-80
2021/04/17 14:26:12;;;;;;;14.07;5.78;;;;;;;;;;5028754;28;20468;-80
2021/04/17 14:28:41;;;;;;;10.73;5.33;;;;;;;;;;5033007;28;20465;-82
2021/04/17 14:31:12;;;;;;;10.30;6.43;;;;;;;;;;5032723;28;20388;-81
2021/04/17 14:33:40;;;;;;;9.88;5.30;;;;;;;;;;5028816;28;20435;-80
2021/04/17 14:36:07;;;;;;;11.80;6.13;;;;;;;;;;5032382;28;20373;-81
2021/04/17 14:38:33;;;;;;;10.48;5.68;;;;;;;;;;5032046;28;20828;-81
2021/04/17 14:40:59;;;;;;;12.40;5.88;;;;;;;;;;5033390;28;20428;-81
2021/04/17 14:43:26;;;;;;;9.65;6.07;;;;;;;;;;5033776;28;20404;-81
2021/04/17 14:45:52;;;;;;;11.02;5.70;;;;;;;;;;5031817;28;20373;-81
2021/04/17 14:48:18;;;;;;;9.95;5.82;;;;;;;;;;5032255;28;20372;-80